createdAt,value
2024-01-05T00:00:04.385Z,0.00
2024-01-05T00:02:34.060Z,0.85
2024-01-05T00:05:03.183Z,0.00
2024-01-05T00:07:30.303Z,0.00
2024-01-05T00:09:57.045Z,0.00
2024-01-05T00:12:24.127Z,0.00
2024-01-05T00:14:51.188Z,0.00
2024-01-05T00:17:17.957Z,0.30
2024-01-05T00:19:44.685Z,0.00
2024-01-05T00:22:11.406Z,0.00
2024-01-05T00:24:38.433Z,0.00
2024-01-05T00:27:05.244Z,0.00
2024-01-05T00:29:31.994Z,0.00
2024-01-05T00:31:58.659Z,0.00
2024-01-05T00:34:25.416Z,0.00
2024-01-05T00:36:52.086Z,0.00
2024-01-05T00:39:18.897Z,0.00
2024-01-05T00:41:47.641Z,0.00
2024-01-05T00:44:15.216Z,0.00
2024-01-05T00:46:42.135Z,0.20
2024-01-05T00:49:09.055Z,0.00
2024-01-05T00:51:35.859Z,0.00
2024-01-05T00:54:02.564Z,0.00
2024-01-05T00:56:29.643Z,0.00
2024-01-05T00:58:56.361Z,0.00
2024-01-05T01:01:23.056Z,0.00
2024-01-05T01:03:49.919Z,0.00
2024-01-05T01:06:16.754Z,0.00
2024-01-05T01:08:43.580Z,0.00
2024-01-05T01:11:17.752Z,0.00
2024-01-05T01:13:45.422Z,0.00
2024-01-05T01:16:12.776Z,0.00
2024-01-05T01:18:40.278Z,0.00
2024-01-05T01:21:07.234Z,0.00
2024-01-05T01:23:34.474Z,0.00
2024-01-05T01:26:01.233Z,0.00
2024-01-05T01:28:29.099Z,0.00
2024-01-05T01:30:57.351Z,0.00
2024-01-05T01:33:24.408Z,0.00
2024-01-05T01:35:51.307Z,0.00
2024-01-05T01:38:18.230Z,0.00
2024-01-05T01:40:48.649Z,0.00
2024-01-05T01:43:27.022Z,0.00
2024-01-05T01:46:00.621Z,0.00
2024-01-05T01:48:28.777Z,0.00
2024-01-05T01:50:59.188Z,0.00
2024-01-05T01:53:28.083Z,0.00
2024-01-05T01:55:55.992Z,0.47
2024-01-05T01:58:23.016Z,0.00
2024-01-05T02:05:43.132Z,0.00
2024-01-05T02:08:09.931Z,0.00
2024-01-05T02:10:36.588Z,0.00
2024-01-05T02:13:03.494Z,0.00
2024-01-05T02:15:30.263Z,0.00
2024-01-05T02:17:57.030Z,0.00
2024-01-05T02:20:23.863Z,0.00
2024-01-05T02:22:57.636Z,0.00
2024-01-05T02:25:24.306Z,0.00
2024-01-05T02:27:50.969Z,0.00
2024-01-05T02:30:21.242Z,0.00
2024-01-05T02:32:48.249Z,0.00
2024-01-05T02:35:15.156Z,0.00
2024-01-05T02:37:44.261Z,0.00
2024-01-05T02:40:14.094Z,0.00
2024-01-05T02:42:40.873Z,0.00
2024-01-05T02:45:08.126Z,0.00
2024-01-05T02:47:34.911Z,0.00
2024-01-05T02:50:02.272Z,0.00
2024-01-05T02:52:28.920Z,0.00
2024-01-05T02:54:55.584Z,0.00
2024-01-05T02:57:22.292Z,0.00
2024-01-05T02:59:51.274Z,0.00
2024-01-05T03:02:17.971Z,0.00
2024-01-05T03:04:45.268Z,0.00
2024-01-05T03:07:11.938Z,0.00
2024-01-05T03:09:38.589Z,0.00
2024-01-05T03:12:06.620Z,0.00
2024-01-05T03:14:33.364Z,0.00
2024-01-05T03:17:00.060Z,0.00
2024-01-05T03:19:27.056Z,0.00
2024-01-05T03:21:53.802Z,0.00
2024-01-05T03:24:20.530Z,0.00
2024-01-05T03:26:47.562Z,0.00
2024-01-05T03:29:14.190Z,0.00
2024-01-05T03:31:41.122Z,0.00
2024-01-05T03:34:07.992Z,0.00
2024-01-05T03:36:34.889Z,0.00
2024-01-05T03:39:02.213Z,0.00
2024-01-05T03:41:29.008Z,0.00
2024-01-05T03:43:55.861Z,0.00
2024-01-05T03:46:22.571Z,0.00
2024-01-05T03:48:49.331Z,0.00
2024-01-05T03:51:16.185Z,0.00
2024-01-05T03:53:42.950Z,0.00
2024-01-05T03:56:09.790Z,0.00
2024-01-05T03:58:36.533Z,0.00
2024-01-05T04:01:04.177Z,0.00
2024-01-05T04:03:31.457Z,0.00
2024-01-05T04:05:58.305Z,0.00
2024-01-05T04:08:25.082Z,0.00
2024-01-05T04:10:51.774Z,0.00
2024-01-05T04:13:18.443Z,0.00
2024-01-05T04:15:45.392Z,0.00
2024-01-05T04:18:12.287Z,0.00
2024-01-05T04:20:40.126Z,0.00
2024-01-05T04:23:06.787Z,0.00
2024-01-05T04:25:33.669Z,0.00
2024-01-05T04:28:00.349Z,0.00
2024-01-05T04:30:27.130Z,0.00
2024-01-05T04:32:54.259Z,0.10
2024-01-05T04:35:21.054Z,0.00
2024-01-05T04:37:47.703Z,0.00
2024-01-05T04:40:14.515Z,0.00
2024-01-05T04:42:41.258Z,0.65
2024-01-05T04:45:09.097Z,0.00
2024-01-05T04:47:36.311Z,0.00
2024-01-05T04:50:05.859Z,8.50
2024-01-05T04:52:32.705Z,0.00
2024-01-05T04:54:59.368Z,0.00
2024-01-05T04:57:26.058Z,0.00
2024-01-05T04:59:52.870Z,0.00
2024-01-05T05:02:19.572Z,0.00
2024-01-05T05:04:48.667Z,0.00
2024-01-05T05:07:16.011Z,0.00
2024-01-05T05:09:42.890Z,0.00
2024-01-05T05:12:09.573Z,0.00
2024-01-05T05:14:36.266Z,0.00
2024-01-05T05:17:02.949Z,0.00
2024-01-05T05:19:29.771Z,0.00
2024-01-05T05:21:56.496Z,3.08
2024-01-05T05:24:23.386Z,0.00
2024-01-05T05:26:50.085Z,0.00
2024-01-05T05:29:16.798Z,0.00
2024-01-05T05:31:43.674Z,0.00
2024-01-05T05:34:10.638Z,0.00
2024-01-05T05:36:37.358Z,0.00
2024-01-05T05:39:04.048Z,0.65
2024-01-05T05:41:30.736Z,0.00
2024-01-05T05:43:57.359Z,0.15
2024-01-05T05:46:23.980Z,0.00
2024-01-05T05:48:50.836Z,0.00
2024-01-05T05:51:17.689Z,0.00
2024-01-05T05:53:44.747Z,0.00
2024-01-05T05:56:11.402Z,0.00
2024-01-05T05:58:38.072Z,0.00
2024-01-05T06:01:06.209Z,0.00
2024-01-05T06:03:33.143Z,0.00
2024-01-05T06:06:00.076Z,0.00
2024-01-05T06:08:26.893Z,0.00
2024-01-05T06:10:53.655Z,0.00
2024-01-05T06:13:20.308Z,0.00
2024-01-05T06:15:46.989Z,0.00
2024-01-05T06:18:13.940Z,0.00
2024-01-05T06:20:40.649Z,0.00
2024-01-05T06:23:07.382Z,0.00
2024-01-05T06:25:34.036Z,8.05
2024-01-05T06:28:01.429Z,0.00
2024-01-05T06:30:28.207Z,0.00
2024-01-05T06:32:55.002Z,0.00
2024-01-05T06:35:21.816Z,0.00
2024-01-05T06:37:48.615Z,0.00
2024-01-05T06:40:15.440Z,0.00
2024-01-05T06:42:42.459Z,0.00
2024-01-05T06:45:09.649Z,0.00
2024-01-05T06:47:36.388Z,0.00
2024-01-05T06:50:05.461Z,0.00
2024-01-05T06:52:32.358Z,0.00
2024-01-05T06:55:00.690Z,0.00
2024-01-05T06:57:29.566Z,1.08
2024-01-05T06:59:56.337Z,0.00
2024-01-05T07:02:23.029Z,0.00
2024-01-05T07:04:49.775Z,0.00
2024-01-05T07:07:17.189Z,0.00
2024-01-05T07:09:44.210Z,0.00
2024-01-05T07:12:11.171Z,0.00
2024-01-05T07:14:39.957Z,0.00
2024-01-05T07:17:06.867Z,0.00
2024-01-05T07:19:33.639Z,0.00
2024-01-05T07:22:00.360Z,0.00
2024-01-05T07:24:26.987Z,0.00
2024-01-05T07:26:53.637Z,0.00
2024-01-05T07:29:20.467Z,0.00
2024-01-05T07:31:47.093Z,0.00
2024-01-05T07:34:13.829Z,0.00
2024-01-05T07:36:44.245Z,0.00
2024-01-05T07:39:14.282Z,0.00
2024-01-05T07:41:40.991Z,0.00
2024-01-05T07:44:07.773Z,0.00
2024-01-05T07:46:41.898Z,0.20
2024-01-05T07:49:09.450Z,0.00
2024-01-05T07:51:38.590Z,0.00
2024-01-05T07:54:06.449Z,0.00
2024-01-05T07:56:39.032Z,0.00
2024-01-05T07:59:05.755Z,0.00
2024-01-05T08:01:32.468Z,0.00
2024-01-05T08:03:59.310Z,0.00
2024-01-05T08:06:26.176Z,0.00
2024-01-05T08:08:52.917Z,0.00
2024-01-05T08:11:19.845Z,0.00
2024-01-05T08:13:47.653Z,0.00
2024-01-05T08:16:14.865Z,0.00
2024-01-05T08:18:42.933Z,0.00
2024-01-05T08:21:09.802Z,0.00
2024-01-05T08:23:36.614Z,0.00
2024-01-05T08:26:06.099Z,0.00
2024-01-05T08:28:32.873Z,0.00
2024-01-05T08:31:00.479Z,0.00
2024-01-05T08:33:27.508Z,0.00
2024-01-05T08:35:54.618Z,0.00
2024-01-05T08:38:21.326Z,0.00
2024-01-05T08:40:51.142Z,0.00
2024-01-05T08:43:18.353Z,0.00
2024-01-05T08:45:49.082Z,0.00
2024-01-05T08:48:18.902Z,0.00
2024-01-05T08:50:45.701Z,0.00
2024-01-05T08:53:12.886Z,0.00
2024-01-05T08:55:39.618Z,0.00
2024-01-05T08:58:06.494Z,0.00
2024-01-05T09:00:33.850Z,0.00
2024-01-05T09:03:00.848Z,0.00
2024-01-05T09:05:27.666Z,0.00
2024-01-05T09:07:54.457Z,0.00
2024-01-05T09:10:21.205Z,0.00
2024-01-05T09:12:47.967Z,0.00
2024-01-05T09:15:17.101Z,0.30
2024-01-05T09:17:43.824Z,0.00
2024-01-05T09:20:13.164Z,0.00
2024-01-05T09:22:39.897Z,0.00
2024-01-05T09:25:07.736Z,0.00
2024-01-05T09:27:34.757Z,0.00
2024-01-05T09:30:01.646Z,0.00
2024-01-05T09:32:28.524Z,0.00
2024-01-05T09:34:55.324Z,0.00
2024-01-05T09:37:22.045Z,0.00
2024-01-05T09:39:49.252Z,0.00
2024-01-05T09:42:16.392Z,0.00
2024-01-05T09:44:43.463Z,0.00
2024-01-05T09:47:11.865Z,0.00
2024-01-05T09:49:40.728Z,0.00
2024-01-05T09:52:07.505Z,0.00
2024-01-05T09:54:34.223Z,0.00
2024-01-05T09:57:03.789Z,0.00
2024-01-05T09:59:30.764Z,0.00
2024-01-05T10:02:01.176Z,0.00
2024-01-05T10:04:29.081Z,0.00
2024-01-05T10:07:03.801Z,0.00
2024-01-05T10:09:31.598Z,0.00
2024-01-05T10:11:59.150Z,0.00
2024-01-05T10:14:30.557Z,0.10
2024-01-05T10:17:11.742Z,0.00
2024-01-05T10:19:42.234Z,0.00
2024-01-05T10:22:14.230Z,0.00
2024-01-05T10:24:43.547Z,0.00
2024-01-05T10:27:15.093Z,0.00
2024-01-05T10:29:44.525Z,0.00
2024-01-05T10:32:21.405Z,0.00
2024-01-05T10:34:51.072Z,0.00
2024-01-05T10:37:23.497Z,0.00
2024-01-05T10:39:53.223Z,0.00
2024-01-05T10:42:25.746Z,0.00
2024-01-05T10:44:55.282Z,0.00
2024-01-05T10:47:24.909Z,0.00
2024-01-05T10:49:54.952Z,0.00
2024-01-05T10:52:25.428Z,0.00
2024-01-05T10:54:53.870Z,0.00
2024-01-05T10:57:22.562Z,0.00
2024-01-05T10:59:55.535Z,0.00
2024-01-05T11:02:41.407Z,0.00
2024-01-05T11:05:13.778Z,0.00
2024-01-05T11:07:43.234Z,0.00
2024-01-05T11:10:52.482Z,0.00
2024-01-05T11:13:56.568Z,0.00
2024-01-05T11:17:03.812Z,0.00
2024-01-05T11:22:25.081Z,0.00
2024-01-05T11:24:53.040Z,0.00
2024-01-05T11:27:36.752Z,0.00
2024-01-05T11:30:04.658Z,1.58
2024-01-05T11:32:48.442Z,1.80
2024-01-05T11:35:18.704Z,2.60
2024-01-05T11:37:45.903Z,0.75
2024-01-05T11:40:30.086Z,1.90
2024-01-05T11:43:00.159Z,2.10
2024-01-05T11:45:45.711Z,0.63
2024-01-05T11:48:34.502Z,2.05
2024-01-05T11:51:07.146Z,1.40
2024-01-05T11:53:34.101Z,3.22
2024-01-05T11:56:11.360Z,1.30
2024-01-05T11:58:44.098Z,2.70
2024-01-05T12:01:13.110Z,2.20
2024-01-05T12:03:41.504Z,1.10
2024-01-05T12:06:11.084Z,5.50
2024-01-05T12:08:39.652Z,2.17
2024-01-05T12:11:09.974Z,2.35
2024-01-05T12:13:38.727Z,1.13
2024-01-05T12:16:08.408Z,1.65
2024-01-05T12:18:49.632Z,2.22
2024-01-05T12:21:21.118Z,2.78
2024-01-05T12:23:57.282Z,1.50
2024-01-05T12:26:24.865Z,2.78
2024-01-05T12:28:52.655Z,5.00
2024-01-05T12:31:20.399Z,1.48
2024-01-05T12:33:47.753Z,4.28
2024-01-05T12:36:28.324Z,3.63
2024-01-05T12:38:55.098Z,0.57
2024-01-05T12:41:22.379Z,5.28
2024-01-05T12:43:51.985Z,3.92
2024-01-05T12:46:21.188Z,2.63
2024-01-05T12:48:48.401Z,5.13
2024-01-05T12:51:23.844Z,3.08
2024-01-05T12:56:30.802Z,4.57
2024-01-05T12:58:57.549Z,2.75
2024-01-05T13:01:25.349Z,2.13
2024-01-05T13:03:57.249Z,3.90
2024-01-05T13:06:32.949Z,2.72
2024-01-05T13:08:59.914Z,1.95
2024-01-05T13:11:26.733Z,3.70
2024-01-05T13:13:54.048Z,1.90
2024-01-05T13:16:21.504Z,4.07
2024-01-05T13:18:48.976Z,3.22
2024-01-05T13:21:16.025Z,4.13
2024-01-05T13:23:44.345Z,4.65
2024-01-05T13:26:11.098Z,1.48
2024-01-05T13:28:38.419Z,4.63
2024-01-05T13:31:05.993Z,4.75
2024-01-05T13:33:33.980Z,5.03
2024-01-05T13:36:01.127Z,7.45
2024-01-05T13:38:28.135Z,2.30
2024-01-05T13:40:55.021Z,2.67
2024-01-05T13:43:23.991Z,6.35
2024-01-05T13:45:52.371Z,5.47
2024-01-05T13:48:19.323Z,5.43
2024-01-05T13:50:46.160Z,3.63
2024-01-05T13:53:15.019Z,4.00
2024-01-05T13:55:42.258Z,1.45
2024-01-05T13:58:09.156Z,4.60
2024-01-05T14:00:36.038Z,4.10
2024-01-05T14:03:03.190Z,2.92
2024-01-05T14:05:30.878Z,4.63
2024-01-05T14:07:57.692Z,9.65
2024-01-05T14:10:24.374Z,5.68
2024-01-05T14:12:51.058Z,3.60
2024-01-05T14:15:17.889Z,3.45
2024-01-05T14:17:46.235Z,3.40
2024-01-05T14:20:13.452Z,5.18
2024-01-05T14:22:40.421Z,6.25
2024-01-05T14:25:07.749Z,5.93
2024-01-05T14:27:34.620Z,5.53
2024-01-05T14:30:01.350Z,2.88
2024-01-05T14:32:28.101Z,5.82
2024-01-05T14:34:55.056Z,5.55
2024-01-05T14:37:22.677Z,5.88
2024-01-05T14:39:49.369Z,5.15
2024-01-05T14:42:16.219Z,5.30
2024-01-05T14:44:43.047Z,6.10
2024-01-05T14:47:09.817Z,6.13
2024-01-05T14:49:36.833Z,9.38
2024-01-05T14:52:04.010Z,9.35
2024-01-05T14:54:31.735Z,4.57
2024-01-05T14:57:00.909Z,4.00
2024-01-05T14:59:27.613Z,3.53
2024-01-05T15:01:54.333Z,4.32
2024-01-05T15:04:21.310Z,1.70
2024-01-05T15:06:48.448Z,3.78
2024-01-05T15:09:15.153Z,2.63
2024-01-05T15:11:41.842Z,4.85
2024-01-05T15:14:09.900Z,4.65
2024-01-05T15:16:41.498Z,5.78
2024-01-05T15:19:08.522Z,3.60
2024-01-05T15:21:35.443Z,2.58
2024-01-05T15:24:02.538Z,4.28
2024-01-05T15:26:29.302Z,3.67
2024-01-05T15:28:55.996Z,2.35
2024-01-05T15:31:22.821Z,3.33
2024-01-05T15:33:52.340Z,1.73
2024-01-05T15:36:23.069Z,4.28
2024-01-05T15:38:51.101Z,4.25
2024-01-05T15:41:17.852Z,8.07
2024-01-05T15:43:44.893Z,8.07
2024-01-05T15:46:12.080Z,6.85
2024-01-05T15:48:40.574Z,4.55
2024-01-05T15:51:20.597Z,6.63
2024-01-05T15:53:47.832Z,4.40
2024-01-05T15:56:17.241Z,4.32
2024-01-05T15:58:44.093Z,3.97
2024-01-05T16:01:12.638Z,4.13
2024-01-05T16:03:42.580Z,3.92
2024-01-05T16:06:12.982Z,6.57
2024-01-05T16:08:40.171Z,2.78
2024-01-05T16:11:07.060Z,6.70
2024-01-05T16:13:33.695Z,8.25
2024-01-05T16:16:12.016Z,2.40
2024-01-05T16:18:38.744Z,4.07
2024-01-05T16:21:06.038Z,8.73
2024-01-05T16:23:32.690Z,10.45
2024-01-05T16:25:59.386Z,10.55
2024-01-05T16:28:26.138Z,7.30
2024-01-05T16:30:52.979Z,4.85
2024-01-05T16:33:19.902Z,5.05
2024-01-05T16:35:46.671Z,8.18
2024-01-05T16:38:13.365Z,5.75
2024-01-05T16:40:41.272Z,5.18
2024-01-05T16:43:07.956Z,3.22
2024-01-05T16:45:35.170Z,5.82
2024-01-05T16:48:02.222Z,4.13
2024-01-05T16:50:28.954Z,7.57
2024-01-05T16:52:55.647Z,3.72
2024-01-05T16:55:22.377Z,5.15
2024-01-05T16:57:49.031Z,5.32
2024-01-05T17:00:16.687Z,3.15
2024-01-05T17:02:43.426Z,7.28
2024-01-05T17:05:10.236Z,6.75
2024-01-05T17:07:36.993Z,5.82
2024-01-05T17:10:04.075Z,6.18
2024-01-05T17:12:30.849Z,10.90
2024-01-05T17:14:57.748Z,5.15
2024-01-05T17:17:25.843Z,6.10
2024-01-05T17:19:57.936Z,6.03
2024-01-05T17:22:29.286Z,6.47
2024-01-05T17:24:56.355Z,5.68
2024-01-05T17:27:24.362Z,6.03
2024-01-05T17:29:51.646Z,4.30
2024-01-05T17:32:18.845Z,4.57
2024-01-05T17:34:46.936Z,7.15
2024-01-05T17:37:16.736Z,6.22
2024-01-05T17:39:44.986Z,7.13
2024-01-05T17:42:11.879Z,6.80
2024-01-05T17:44:43.573Z,3.65
2024-01-05T17:47:13.950Z,4.15
2024-01-05T17:49:41.244Z,6.93
2024-01-05T17:52:12.035Z,5.10
2024-01-05T17:54:40.125Z,6.18
2024-01-05T17:57:07.525Z,8.20
2024-01-05T17:59:34.827Z,5.45
2024-01-05T18:02:01.647Z,4.07
2024-01-05T18:04:30.348Z,5.65
2024-01-05T18:06:57.560Z,6.07
2024-01-05T18:09:24.925Z,8.25
2024-01-05T18:11:52.745Z,4.05
2024-01-05T18:14:20.077Z,8.20
2024-01-05T18:16:47.226Z,6.13
2024-01-05T18:19:14.155Z,5.10
2024-01-05T18:21:45.890Z,4.07
2024-01-05T18:24:13.082Z,5.97
2024-01-05T18:26:40.602Z,6.53
2024-01-05T18:29:20.598Z,3.65
2024-01-05T18:31:53.317Z,3.75
2024-01-05T18:34:23.582Z,4.65
2024-01-05T18:36:51.061Z,5.60
2024-01-05T18:39:18.481Z,3.47
2024-01-05T18:41:45.335Z,3.85
2024-01-05T18:44:15.755Z,8.40
2024-01-05T18:46:42.969Z,6.75
2024-01-05T18:49:11.124Z,4.72
2024-01-05T18:51:38.275Z,4.88
2024-01-05T18:54:07.312Z,7.38
2024-01-05T18:56:34.601Z,4.40
2024-01-05T18:59:02.636Z,7.13
2024-01-05T19:01:29.467Z,4.53
2024-01-05T19:03:56.392Z,4.50
2024-01-05T19:06:23.278Z,5.43
2024-01-05T19:08:49.997Z,5.22
2024-01-05T19:11:16.690Z,3.40
2024-01-05T19:13:44.152Z,5.68
2024-01-05T19:16:12.328Z,7.28
2024-01-05T19:18:39.239Z,6.70
2024-01-05T19:21:06.236Z,7.90
2024-01-05T19:23:33.152Z,6.40
2024-01-05T19:26:00.910Z,4.40
2024-01-05T19:28:28.232Z,7.05
2024-01-05T19:30:56.079Z,6.25
2024-01-05T19:33:23.629Z,6.32
2024-01-05T19:35:50.979Z,5.90
2024-01-05T19:38:18.461Z,6.85
2024-01-05T19:40:45.477Z,4.85
2024-01-05T19:43:13.084Z,5.05
2024-01-05T19:45:39.916Z,5.20
2024-01-05T19:48:07.872Z,4.35
2024-01-05T19:50:37.283Z,5.07
2024-01-05T19:53:05.446Z,7.68
2024-01-05T19:55:32.981Z,4.30
2024-01-05T19:57:59.931Z,6.63
2024-01-05T20:00:26.909Z,7.45
2024-01-05T20:02:54.041Z,5.60
2024-01-05T20:05:22.489Z,8.15
2024-01-05T20:07:51.274Z,5.78
2024-01-05T20:10:18.030Z,5.65
2024-01-05T20:12:46.768Z,8.45
2024-01-05T20:15:14.147Z,5.75
2024-01-05T20:17:41.025Z,9.48
2024-01-05T20:20:09.721Z,11.90
2024-01-05T20:22:38.738Z,7.97
2024-01-05T20:25:06.985Z,6.95
2024-01-05T20:27:41.256Z,8.07
2024-01-05T20:30:12.341Z,11.07
2024-01-05T20:32:42.461Z,10.65
2024-01-05T20:35:11.924Z,6.53
2024-01-05T20:37:39.079Z,7.43
2024-01-05T20:40:10.728Z,8.65
2024-01-05T20:42:37.938Z,6.13
2024-01-05T20:45:08.596Z,6.65
2024-01-05T20:47:35.600Z,6.45
2024-01-05T20:50:02.708Z,8.80
2024-01-05T20:52:29.587Z,8.63
2024-01-05T20:54:56.259Z,7.07
2024-01-05T20:57:22.953Z,8.13
2024-01-05T20:59:52.749Z,5.43
2024-01-05T21:02:19.917Z,7.28
2024-01-05T21:04:48.272Z,7.75
2024-01-05T21:07:17.772Z,6.95
2024-01-05T21:09:44.659Z,5.97
2024-01-05T21:12:11.470Z,6.15
2024-01-05T21:14:41.521Z,7.72
2024-01-05T21:17:08.401Z,4.90
2024-01-05T21:19:40.329Z,6.85
2024-01-05T21:22:07.511Z,7.95
2024-01-05T21:24:34.462Z,5.85
2024-01-05T21:27:01.490Z,6.93
2024-01-05T21:29:29.202Z,7.80
2024-01-05T21:31:56.429Z,6.00
2024-01-05T21:34:23.350Z,5.45
2024-01-05T21:36:50.555Z,6.97
2024-01-05T21:39:18.065Z,9.88
2024-01-05T21:41:47.219Z,8.48
2024-01-05T21:44:14.520Z,9.25
2024-01-05T21:46:41.301Z,8.30
2024-01-05T21:49:09.742Z,9.20
2024-01-05T21:51:37.258Z,11.77
2024-01-05T21:54:04.744Z,8.05
2024-01-05T21:56:31.610Z,9.07
2024-01-05T21:58:58.598Z,8.40
2024-01-05T22:01:25.389Z,7.95
2024-01-05T22:03:52.217Z,9.70
2024-01-05T22:06:19.119Z,9.57
2024-01-05T22:08:46.331Z,7.47
2024-01-05T22:11:13.170Z,10.82
2024-01-05T22:13:40.391Z,10.45
2024-01-05T22:16:07.524Z,8.95
2024-01-05T22:18:38.145Z,9.95
2024-01-05T22:21:13.100Z,9.95
2024-01-05T22:23:41.752Z,11.73
2024-01-05T22:26:18.186Z,9.25
2024-01-05T22:28:44.903Z,10.25
2024-01-05T22:31:11.747Z,10.55
2024-01-05T22:33:41.540Z,11.48
2024-01-05T22:36:13.655Z,13.30
2024-01-05T22:38:41.269Z,12.38
2024-01-05T22:41:11.131Z,12.20
2024-01-05T22:43:39.760Z,11.93
2024-01-05T22:46:18.114Z,11.25
2024-01-05T22:48:47.326Z,13.23
2024-01-05T22:51:21.355Z,13.07
2024-01-05T22:53:48.360Z,12.85
2024-01-05T22:56:15.057Z,11.73
2024-01-05T22:58:41.973Z,12.18
2024-01-05T23:01:08.791Z,16.25
2024-01-05T23:03:35.528Z,13.50
2024-01-05T23:06:02.350Z,13.35
2024-01-05T23:08:29.079Z,15.57
2024-01-05T23:10:55.740Z,15.73
2024-01-05T23:13:22.482Z,14.68
2024-01-05T23:15:49.422Z,14.63
2024-01-05T23:18:16.342Z,13.73
2024-01-05T23:20:44.345Z,14.02
2024-01-05T23:23:11.023Z,14.32
2024-01-05T23:25:37.820Z,14.68
2024-01-05T23:28:05.109Z,15.45
2024-01-05T23:30:32.305Z,14.15
2024-01-05T23:32:59.135Z,15.10
2024-01-05T23:35:26.004Z,16.25
2024-01-05T23:37:53.471Z,16.60
2024-01-05T23:40:20.401Z,13.95
2024-01-05T23:42:47.407Z,15.35
2024-01-05T23:45:14.951Z,15.05
2024-01-05T23:47:41.938Z,15.90
2024-01-05T23:50:09.235Z,17.05
2024-01-05T23:52:35.967Z,16.42
2024-01-05T23:55:02.675Z,18.20
2024-01-05T23:57:29.339Z,17.77
2024-01-05T23:59:59.917Z,16.92
